createdAt,value
2019-05-14T00:02:26.669Z,3.63
2019-05-14T00:04:56.929Z,3.97
2019-05-14T00:07:29.054Z,3.77
2019-05-14T00:10:01.185Z,3.40
2019-05-14T00:12:31.708Z,3.40
2019-05-14T00:15:03.366Z,3.27
2019-05-14T00:17:33.668Z,3.60
2019-05-14T00:20:09.257Z,3.60
2019-05-14T00:22:36.567Z,3.67
2019-05-14T00:25:06.967Z,3.40
2019-05-14T00:27:37.226Z,3.33
2019-05-14T00:30:08.297Z,3.77
2019-05-14T00:32:41.369Z,3.77
2019-05-14T00:35:12.059Z,4.23
2019-05-14T00:37:42.361Z,3.97
2019-05-14T00:40:12.753Z,3.40
2019-05-14T00:42:43.513Z,4.50
2019-05-14T00:45:14.029Z,3.60
2019-05-14T00:47:44.393Z,3.33
2019-05-14T00:50:16.464Z,3.53
2019-05-14T00:52:46.760Z,3.93
2019-05-14T00:55:22.333Z,4.10
2019-05-14T00:57:52.896Z,3.90
2019-05-14T01:00:23.164Z,4.23
2019-05-14T01:02:53.488Z,3.97
2019-05-14T01:05:25.280Z,3.60
2019-05-14T01:07:55.903Z,3.60
2019-05-14T01:10:26.206Z,3.90
2019-05-14T01:12:56.602Z,3.67
2019-05-14T01:15:28.016Z,3.50
2019-05-14T01:17:58.328Z,3.87
2019-05-14T01:20:28.640Z,3.50
2019-05-14T01:22:58.966Z,3.77
2019-05-14T01:25:31.566Z,3.50
2019-05-14T01:28:02.052Z,3.80
2019-05-14T01:30:32.589Z,3.57
2019-05-14T01:33:03.186Z,4.03
2019-05-14T01:35:35.234Z,3.67
2019-05-14T01:38:05.543Z,3.80
2019-05-14T01:40:35.830Z,3.73
2019-05-14T01:43:06.194Z,4.30
2019-05-14T01:45:36.481Z,3.67
2019-05-14T01:48:06.805Z,3.90
2019-05-14T01:50:37.360Z,4.03
2019-05-14T01:53:07.662Z,3.80
2019-05-14T01:55:37.985Z,3.73
2019-05-14T01:58:08.288Z,4.20
2019-05-14T02:00:38.890Z,3.50
2019-05-14T02:03:09.169Z,3.90
2019-05-14T02:05:41.478Z,3.97
2019-05-14T02:08:12.181Z,3.73
2019-05-14T02:10:46.842Z,3.57
2019-05-14T02:13:21.449Z,3.83
2019-05-14T02:15:52.240Z,3.30
2019-05-14T02:18:23.030Z,3.37
2019-05-14T02:20:53.380Z,3.97
2019-05-14T02:23:23.641Z,3.57
2019-05-14T02:25:54.331Z,4.50
2019-05-14T02:28:27.781Z,3.93
2019-05-14T02:31:03.088Z,4.03
2019-05-14T02:33:30.757Z,3.73
2019-05-14T02:36:01.716Z,4.17
2019-05-14T02:38:32.930Z,4.07
2019-05-14T02:41:03.853Z,4.30
2019-05-14T02:43:34.809Z,3.77
2019-05-14T02:46:13.117Z,4.07
2019-05-14T02:48:40.493Z,3.60
2019-05-14T02:51:10.840Z,4.20
2019-05-14T02:53:41.579Z,4.07
2019-05-14T02:56:11.876Z,4.50
2019-05-14T02:58:43.669Z,4.20
2019-05-14T03:01:14.450Z,4.47
2019-05-14T03:03:44.929Z,4.20
2019-05-14T03:06:15.226Z,3.93
2019-05-14T03:08:45.644Z,5.40
2019-05-14T03:11:20.031Z,4.20
2019-05-14T03:13:49.843Z,4.10
2019-05-14T03:16:30.051Z,4.07
2019-05-14T03:18:52.585Z,4.47
2019-05-14T03:21:23.944Z,4.70
2019-05-14T03:23:54.252Z,4.30
2019-05-14T03:26:24.894Z,3.77
2019-05-14T03:28:55.515Z,4.00
2019-05-14T03:31:33.181Z,4.27
2019-05-14T03:34:03.321Z,3.90
2019-05-14T03:36:35.064Z,3.97
2019-05-14T03:39:10.218Z,4.17
2019-05-14T03:41:39.874Z,4.70
2019-05-14T03:44:10.840Z,4.07
2019-05-14T03:46:51.307Z,4.57
2019-05-14T03:49:19.805Z,4.20
2019-05-14T03:51:49.997Z,3.67
2019-05-14T03:54:20.545Z,3.80
2019-05-14T03:56:51.694Z,3.63
2019-05-14T03:59:22.507Z,3.37
2019-05-14T04:01:53.414Z,3.40
2019-05-14T04:04:24.388Z,3.10
2019-05-14T04:06:59.955Z,3.20
2019-05-14T04:09:31.622Z,3.73
2019-05-14T04:12:04.432Z,3.03
2019-05-14T04:14:39.647Z,2.80
2019-05-14T04:17:15.816Z,3.00
2019-05-14T04:19:49.307Z,2.77
2019-05-14T04:22:20.468Z,3.13
2019-05-14T04:24:52.255Z,2.90
2019-05-14T04:27:23.192Z,3.00
2019-05-14T04:29:54.920Z,3.10
2019-05-14T04:32:29.135Z,2.90
2019-05-14T04:35:00.689Z,3.00
2019-05-14T04:37:32.862Z,2.77
2019-05-14T04:40:03.769Z,3.17
2019-05-14T04:42:34.085Z,2.80
2019-05-14T04:45:05.949Z,2.57
2019-05-14T04:47:42.041Z,3.03
2019-05-14T04:50:10.941Z,2.93
2019-05-14T04:52:41.315Z,2.87
2019-05-14T04:55:13.007Z,2.80
2019-05-14T04:57:44.920Z,2.60
2019-05-14T05:00:15.286Z,2.43
2019-05-14T05:02:49.467Z,2.77
2019-05-14T05:05:19.612Z,2.97
2019-05-14T05:07:50.138Z,2.43
2019-05-14T05:10:20.920Z,2.90
2019-05-14T05:12:52.683Z,2.20
2019-05-14T05:15:23.950Z,2.50
2019-05-14T05:17:54.244Z,2.20
2019-05-14T05:20:24.542Z,2.07
2019-05-14T05:22:55.132Z,2.17
2019-05-14T05:25:25.552Z,2.30
2019-05-14T05:27:59.817Z,2.10
2019-05-14T05:30:30.406Z,2.20
2019-05-14T05:33:01.784Z,2.40
2019-05-14T05:35:32.160Z,1.97
2019-05-14T05:38:03.298Z,1.87
2019-05-14T05:40:33.885Z,2.05
2019-05-14T05:43:04.173Z,2.08
2019-05-14T05:45:34.543Z,1.70
2019-05-14T05:48:08.066Z,2.20
2019-05-14T05:50:39.194Z,2.00
2019-05-14T05:53:09.584Z,1.70
2019-05-14T05:55:41.176Z,1.62
2019-05-14T05:58:11.512Z,1.52
2019-05-14T06:00:44.613Z,1.40
2019-05-14T06:03:20.967Z,1.30
2019-05-14T06:05:49.851Z,1.42
2019-05-14T06:08:20.189Z,1.30
2019-05-14T06:10:50.287Z,1.20
2019-05-14T06:13:20.800Z,1.30
2019-05-14T06:15:52.497Z,1.17
2019-05-14T06:18:22.833Z,1.07
2019-05-14T06:20:53.250Z,1.10
2019-05-14T06:23:23.615Z,1.00
2019-05-14T06:25:55.258Z,1.10
2019-05-14T06:28:30.184Z,1.07
2019-05-14T06:30:58.913Z,1.00
2019-05-14T06:33:29.436Z,0.95
2019-05-14T06:36:02.682Z,1.02
2019-05-14T06:38:32.943Z,1.27
2019-05-14T06:41:03.246Z,0.90
2019-05-14T06:43:33.905Z,0.80
2019-05-14T06:46:04.691Z,0.90
2019-05-14T06:48:35.038Z,1.10
2019-05-14T06:51:05.676Z,0.90
2019-05-14T06:53:35.959Z,1.07
2019-05-14T06:56:08.156Z,1.10
2019-05-14T06:58:39.438Z,0.80
2019-05-14T07:01:10.066Z,0.93
2019-05-14T07:03:40.524Z,0.80
2019-05-14T07:06:10.867Z,0.70
2019-05-14T07:08:41.246Z,0.93
2019-05-14T07:11:14.374Z,0.88
2019-05-14T07:13:49.114Z,0.68
2019-05-14T07:16:21.199Z,0.50
2019-05-14T07:18:54.494Z,0.70
2019-05-14T07:21:24.833Z,0.60
2019-05-14T07:23:59.124Z,0.60
2019-05-14T07:26:29.526Z,0.60
2019-05-14T07:28:59.529Z,0.60
2019-05-14T07:31:30.571Z,0.60
2019-05-14T07:34:00.968Z,0.78
2019-05-14T07:36:31.454Z,0.60
2019-05-14T07:39:02.607Z,0.50
2019-05-14T07:41:39.180Z,0.70
2019-05-14T07:44:10.749Z,0.60
2019-05-14T07:46:43.169Z,0.53
2019-05-14T07:49:18.484Z,0.50
2019-05-14T07:51:50.867Z,0.55
2019-05-14T07:54:22.439Z,0.80
2019-05-14T07:56:53.266Z,0.80
2019-05-14T07:59:23.661Z,0.80
2019-05-14T08:02:00.065Z,0.60
2019-05-14T08:04:32.866Z,0.60
2019-05-14T08:07:03.597Z,0.80
2019-05-14T08:09:38.706Z,0.60
2019-05-14T08:12:12.632Z,0.90
2019-05-14T08:14:56.006Z,0.70
2019-05-14T08:17:13.976Z,0.72
2019-05-14T08:19:49.136Z,0.50
2019-05-14T08:22:20.252Z,1.05
2019-05-14T08:24:51.266Z,0.60
2019-05-14T08:27:30.911Z,0.70
2019-05-14T08:29:59.743Z,0.60
2019-05-14T08:32:30.368Z,0.70
2019-05-14T08:35:02.801Z,0.50
2019-05-14T08:37:33.131Z,0.40
2019-05-14T08:40:03.493Z,0.50
2019-05-14T08:42:35.877Z,0.42
2019-05-14T08:45:12.312Z,0.45
2019-05-14T08:47:41.032Z,0.35
2019-05-14T08:50:12.635Z,0.30
2019-05-14T08:52:43.020Z,0.40
2019-05-14T08:55:14.261Z,0.30
2019-05-14T08:57:48.962Z,0.40
2019-05-14T09:00:20.919Z,0.33
2019-05-14T09:02:51.313Z,0.40
2019-05-14T09:05:23.373Z,0.20
2019-05-14T09:07:58.142Z,0.33
2019-05-14T09:10:31.533Z,0.45
2019-05-14T09:13:02.765Z,0.53
2019-05-14T09:15:33.400Z,0.55
2019-05-14T09:18:04.244Z,0.40
2019-05-14T09:20:34.531Z,0.40
2019-05-14T09:23:08.969Z,0.42
2019-05-14T09:25:47.762Z,0.50
2019-05-14T09:28:13.861Z,0.50
2019-05-14T09:30:45.842Z,0.60
2019-05-14T09:33:18.759Z,0.30
2019-05-14T09:35:49.502Z,0.40
2019-05-14T09:38:20.487Z,0.45
2019-05-14T09:41:07.149Z,0.37
2019-05-14T09:43:28.590Z,0.30
2019-05-14T09:45:59.754Z,0.30
2019-05-14T09:48:37.858Z,0.30
2019-05-14T09:51:09.266Z,0.30
2019-05-14T09:53:40.672Z,0.40
2019-05-14T09:56:11.487Z,0.47
2019-05-14T09:58:42.874Z,0.40
2019-05-14T10:01:14.499Z,0.40
2019-05-14T10:03:46.370Z,0.40
2019-05-14T10:06:20.705Z,0.45
2019-05-14T10:08:51.007Z,0.50
2019-05-14T10:11:21.890Z,0.60
2019-05-14T10:13:52.218Z,0.30
2019-05-14T10:16:25.918Z,0.37
2019-05-14T10:18:56.627Z,0.30
2019-05-14T10:21:29.244Z,0.30
2019-05-14T10:24:00.046Z,0.37
2019-05-14T10:26:30.373Z,0.47
2019-05-14T10:29:00.755Z,0.60
2019-05-14T10:31:31.149Z,0.53
2019-05-14T10:34:04.271Z,0.37
2019-05-14T10:36:41.407Z,0.20
2019-05-14T10:39:13.413Z,0.60
2019-05-14T10:41:43.735Z,0.30
2019-05-14T10:44:14.138Z,0.40
2019-05-14T10:46:46.058Z,0.40
2019-05-14T10:49:23.525Z,0.37
2019-05-14T10:51:50.834Z,0.50
2019-05-14T10:54:25.668Z,0.40
2019-05-14T10:56:59.360Z,0.37
2019-05-14T10:59:29.892Z,0.57
2019-05-14T11:02:02.636Z,0.33
2019-05-14T11:04:34.542Z,0.37
2019-05-14T11:07:07.085Z,0.35
2019-05-14T11:09:38.039Z,0.30
2019-05-14T11:12:11.018Z,0.53
2019-05-14T11:14:41.283Z,0.50
2019-05-14T11:17:12.121Z,0.50
2019-05-14T11:19:42.980Z,0.45
2019-05-14T11:22:13.324Z,0.60
2019-05-14T11:24:45.335Z,0.50
2019-05-14T11:27:15.704Z,0.50
2019-05-14T11:29:48.887Z,0.40
2019-05-14T11:32:20.939Z,0.53
2019-05-14T11:34:52.452Z,0.60
2019-05-14T11:37:24.575Z,0.45
2019-05-14T11:39:58.127Z,0.50
2019-05-14T11:42:31.597Z,0.47
2019-05-14T11:45:03.758Z,0.50
2019-05-14T11:47:38.012Z,0.50
2019-05-14T11:50:10.065Z,0.50
2019-05-14T11:52:42.326Z,0.40
2019-05-14T11:55:12.859Z,0.40
2019-05-14T11:57:43.264Z,0.60
2019-05-14T12:00:14.611Z,0.50
2019-05-14T12:02:45.090Z,0.60
2019-05-14T12:05:18.762Z,0.50
2019-05-14T12:07:48.140Z,0.60
2019-05-14T12:10:20.649Z,0.70
2019-05-14T12:12:54.783Z,0.75
2019-05-14T12:15:25.931Z,0.47
2019-05-14T12:17:59.249Z,0.47
2019-05-14T12:20:29.668Z,0.42
2019-05-14T12:23:03.319Z,0.35
2019-05-14T12:25:33.937Z,0.55
2019-05-14T12:28:05.402Z,0.42
2019-05-14T12:30:39.257Z,0.45
2019-05-14T12:33:09.723Z,0.40
2019-05-14T12:35:45.557Z,0.50
2019-05-14T12:38:18.540Z,0.50
2019-05-14T12:40:49.760Z,0.70
2019-05-14T12:43:23.890Z,0.70
2019-05-14T12:45:54.260Z,0.60
2019-05-14T12:48:29.516Z,0.60
2019-05-14T12:51:09.025Z,0.70
2019-05-14T12:53:40.894Z,0.70
2019-05-14T12:56:14.173Z,0.62
2019-05-14T12:58:49.582Z,0.65
2019-05-14T13:01:20.319Z,0.70
2019-05-14T13:03:54.966Z,0.50
2019-05-14T13:06:25.454Z,0.50
2019-05-14T13:08:59.105Z,0.72
2019-05-14T13:11:30.328Z,0.70
2019-05-14T13:14:00.745Z,0.47
2019-05-14T13:16:33.883Z,0.60
2019-05-14T13:19:04.313Z,0.55
2019-05-14T13:21:35.075Z,0.60
2019-05-14T13:24:18.148Z,0.80
2019-05-14T13:26:50.848Z,0.60
2019-05-14T13:29:21.289Z,0.70
2019-05-14T13:31:52.155Z,0.70
2019-05-14T13:34:22.560Z,0.62
2019-05-14T13:36:54.832Z,0.75
2019-05-14T13:39:28.284Z,0.80
2019-05-14T13:42:01.223Z,0.70
2019-05-14T13:44:31.544Z,0.60
2019-05-14T13:47:02.864Z,0.65
2019-05-14T13:49:34.380Z,0.60
2019-05-14T13:52:32.074Z,0.68
2019-05-14T13:55:02.504Z,1.15
2019-05-14T13:57:32.866Z,0.82
2019-05-14T14:00:11.655Z,0.80
2019-05-14T14:02:40.219Z,0.80
2019-05-14T14:05:10.721Z,0.90
2019-05-14T14:07:44.537Z,0.78
2019-05-14T14:10:13.905Z,0.75
2019-05-14T14:12:59.758Z,0.80
2019-05-14T14:15:32.164Z,0.80
2019-05-14T14:18:02.522Z,0.82
2019-05-14T14:20:34.911Z,0.80
2019-05-14T14:23:18.832Z,0.80
2019-05-14T14:25:42.366Z,0.70
2019-05-14T14:28:12.770Z,0.70
2019-05-14T14:30:43.098Z,0.80
2019-05-14T14:33:13.527Z,0.70
2019-05-14T14:35:43.931Z,0.70
2019-05-14T14:38:19.930Z,0.62
2019-05-14T14:40:51.852Z,0.78
2019-05-14T14:43:26.273Z,0.82
2019-05-14T14:45:59.558Z,0.82
2019-05-14T14:48:30.755Z,0.78
2019-05-14T14:51:03.209Z,0.80
2019-05-14T14:53:51.347Z,0.70
2019-05-14T14:56:11.191Z,0.78
2019-05-14T14:58:41.921Z,1.00
2019-05-14T15:01:23.706Z,0.90
2019-05-14T15:03:55.540Z,0.85
2019-05-14T15:06:41.565Z,0.75
2019-05-14T15:09:13.289Z,0.85
2019-05-14T15:11:54.281Z,0.90
2019-05-14T15:14:25.487Z,0.82
2019-05-14T15:16:56.513Z,1.00
2019-05-14T15:19:29.535Z,0.70
2019-05-14T15:21:59.273Z,0.90
2019-05-14T15:24:40.120Z,1.07
2019-05-14T15:27:15.039Z,0.90
2019-05-14T15:29:43.283Z,1.00
2019-05-14T15:32:13.982Z,1.00
2019-05-14T15:34:44.510Z,1.00
2019-05-14T15:37:15.053Z,1.00
2019-05-14T15:39:45.444Z,0.80
2019-05-14T15:42:19.030Z,1.00
2019-05-14T15:44:56.067Z,1.10
2019-05-14T15:47:29.717Z,1.00
2019-05-14T15:50:00.247Z,1.30
2019-05-14T15:52:30.599Z,0.80
2019-05-14T15:55:01.084Z,1.17
2019-05-14T15:57:32.190Z,1.00
2019-05-14T16:00:02.785Z,0.90
2019-05-14T16:02:33.629Z,1.00
2019-05-14T16:05:04.236Z,1.15
2019-05-14T16:07:34.598Z,1.07
2019-05-14T16:10:08.655Z,1.00
2019-05-14T16:12:40.088Z,1.20
2019-05-14T16:15:11.552Z,1.05
2019-05-14T16:17:49.924Z,1.20
2019-05-14T16:20:18.825Z,1.25
2019-05-14T16:22:48.575Z,1.20
2019-05-14T16:25:19.132Z,1.00
2019-05-14T16:27:49.434Z,1.22
2019-05-14T16:30:19.823Z,1.10
2019-05-14T16:32:54.248Z,1.10
2019-05-14T16:35:24.679Z,1.10
2019-05-14T16:37:55.080Z,1.50
2019-05-14T16:40:28.622Z,1.20
2019-05-14T16:42:59.979Z,1.27
2019-05-14T16:45:32.021Z,1.20
2019-05-14T16:48:05.302Z,1.20
2019-05-14T16:50:36.386Z,1.27
2019-05-14T16:53:11.322Z,1.20
2019-05-14T16:55:38.744Z,1.30
2019-05-14T16:58:09.150Z,1.35
2019-05-14T17:00:50.070Z,1.50
2019-05-14T17:03:20.616Z,1.42
2019-05-14T17:05:52.346Z,1.27
2019-05-14T17:08:22.479Z,1.77
2019-05-14T17:10:53.227Z,1.40
2019-05-14T17:13:24.915Z,1.40
2019-05-14T17:15:55.215Z,1.30
2019-05-14T17:18:28.543Z,1.40
2019-05-14T17:20:59.425Z,1.30
2019-05-14T17:23:30.329Z,1.60
2019-05-14T17:26:00.705Z,1.35
2019-05-14T17:28:31.302Z,1.45
2019-05-14T17:31:01.612Z,1.40
2019-05-14T17:33:33.322Z,1.20
2019-05-14T17:36:03.786Z,1.22
2019-05-14T17:38:39.449Z,1.40
2019-05-14T17:41:09.786Z,1.60
2019-05-14T17:43:42.602Z,1.40
2019-05-14T17:46:14.795Z,1.57
2019-05-14T17:48:45.298Z,1.72
2019-05-14T17:51:17.925Z,1.20
2019-05-14T17:53:48.378Z,1.57
2019-05-14T17:56:21.165Z,1.42
2019-05-14T17:58:52.945Z,1.40
2019-05-14T18:01:23.293Z,1.40
2019-05-14T18:03:53.551Z,1.77
2019-05-14T18:06:24.606Z,1.50
2019-05-14T18:08:54.924Z,1.32
2019-05-14T18:11:35.345Z,1.30
2019-05-14T18:14:11.633Z,1.60
2019-05-14T18:16:40.568Z,1.57
2019-05-14T18:19:11.317Z,1.20
2019-05-14T18:21:41.743Z,1.62
2019-05-14T18:24:18.771Z,1.50
2019-05-14T18:26:51.347Z,1.40
2019-05-14T18:29:21.826Z,1.52
2019-05-14T18:31:54.589Z,1.60
2019-05-14T18:34:25.117Z,1.52
2019-05-14T18:36:55.620Z,1.85
2019-05-14T18:39:28.352Z,1.50
2019-05-14T18:42:00.491Z,1.95
2019-05-14T18:44:34.214Z,1.57
2019-05-14T18:47:05.124Z,1.60
2019-05-14T18:49:35.580Z,1.90
2019-05-14T18:52:08.742Z,1.60
2019-05-14T18:54:39.355Z,1.80
2019-05-14T18:57:13.675Z,1.92
2019-05-14T18:59:45.556Z,2.05
2019-05-14T19:02:18.430Z,1.75
2019-05-14T19:04:51.901Z,1.55
2019-05-14T19:07:22.174Z,1.65
2019-05-14T19:09:52.467Z,2.08
2019-05-14T19:12:22.903Z,2.05
2019-05-14T19:14:53.660Z,2.45
2019-05-14T19:17:23.936Z,2.47
2019-05-14T19:19:56.094Z,2.00
2019-05-14T19:22:28.613Z,2.22
2019-05-14T19:24:58.826Z,1.90
2019-05-14T19:27:29.239Z,2.00
2019-05-14T19:30:02.956Z,1.85
2019-05-14T19:32:32.221Z,1.70
2019-05-14T19:35:02.654Z,1.93
2019-05-14T19:37:32.941Z,1.60
2019-05-14T19:40:03.245Z,1.90
2019-05-14T19:42:34.875Z,1.92
2019-05-14T19:45:08.515Z,1.98
2019-05-14T19:47:41.079Z,1.83
2019-05-14T19:50:11.869Z,1.60
2019-05-14T19:52:42.193Z,1.77
2019-05-14T19:55:12.685Z,1.60
2019-05-14T19:57:43.102Z,2.13
2019-05-14T20:00:14.164Z,1.80
2019-05-14T20:02:45.276Z,2.07
2019-05-14T20:05:15.670Z,2.00
2019-05-14T20:07:45.970Z,1.80
2019-05-14T20:10:16.781Z,2.10
2019-05-14T20:12:49.354Z,2.00
2019-05-14T20:15:20.178Z,2.03
2019-05-14T20:17:52.171Z,2.20
2019-05-14T20:20:22.783Z,2.20
2019-05-14T20:22:53.084Z,2.33
2019-05-14T20:25:23.363Z,1.83
2019-05-14T20:27:53.662Z,2.00
2019-05-14T20:30:24.736Z,1.93
2019-05-14T20:32:55.558Z,2.20
2019-05-14T20:35:31.564Z,2.10
2019-05-14T20:37:59.056Z,2.27
2019-05-14T20:40:30.265Z,2.40
2019-05-14T20:43:00.608Z,2.17
2019-05-14T20:45:30.998Z,2.10
2019-05-14T20:48:02.139Z,2.00
2019-05-14T20:50:32.554Z,1.90
2019-05-14T20:53:02.900Z,2.20
2019-05-14T20:55:33.204Z,2.30
2019-05-14T20:58:03.683Z,2.10
2019-05-14T21:00:41.286Z,2.60
2019-05-14T21:03:09.669Z,2.40
2019-05-14T21:05:42.424Z,2.30
2019-05-14T21:08:13.467Z,2.30
2019-05-14T21:10:44.179Z,2.40
2019-05-14T21:13:14.511Z,2.23
2019-05-14T21:15:44.876Z,2.27
2019-05-14T21:18:15.698Z,2.03
2019-05-14T21:20:48.789Z,2.13
2019-05-14T21:23:19.409Z,1.90
2019-05-14T21:25:49.680Z,2.10
2019-05-14T21:28:20.268Z,2.17
2019-05-14T21:30:50.922Z,2.00
2019-05-14T21:33:22.716Z,2.13
2019-05-14T21:35:53.980Z,2.30
2019-05-14T21:38:24.304Z,2.30
2019-05-14T21:40:54.619Z,2.00
2019-05-14T21:43:25.001Z,2.17
2019-05-14T21:45:58.505Z,1.90
2019-05-14T21:48:29.137Z,2.00
2019-05-14T21:51:00.980Z,2.00
2019-05-14T21:53:32.505Z,2.10
2019-05-14T21:56:06.128Z,2.20
2019-05-14T21:58:38.525Z,2.13
2019-05-14T22:01:10.153Z,1.87
2019-05-14T22:03:40.770Z,2.00
2019-05-14T22:06:18.146Z,2.30
2019-05-14T22:08:48.820Z,2.10
2019-05-14T22:11:19.652Z,2.10
2019-05-14T22:13:50.135Z,2.20
2019-05-14T22:16:23.190Z,2.37
2019-05-14T22:18:53.865Z,2.40
2019-05-14T22:21:24.987Z,2.40
2019-05-14T22:23:55.273Z,2.30
2019-05-14T22:26:28.768Z,2.33
2019-05-14T22:28:59.108Z,2.50
2019-05-14T22:31:31.034Z,2.30
2019-05-14T22:34:01.316Z,2.60
2019-05-14T22:36:31.606Z,2.50
2019-05-14T22:39:14.663Z,2.60
2019-05-14T22:41:47.797Z,2.37
2019-05-14T22:44:18.724Z,2.30
2019-05-14T22:46:50.998Z,2.20
2019-05-14T22:49:21.356Z,2.30
2019-05-14T22:51:52.039Z,2.20
2019-05-14T22:54:23.070Z,2.27
2019-05-14T22:56:53.444Z,2.33
2019-05-14T22:59:28.152Z,2.13
2019-05-14T23:01:58.880Z,2.50
2019-05-14T23:04:30.207Z,2.40
2019-05-14T23:07:00.499Z,2.30
2019-05-14T23:09:31.099Z,3.57
2019-05-14T23:12:01.454Z,2.60
2019-05-14T23:14:31.769Z,2.47
2019-05-14T23:17:01.881Z,2.87
2019-05-14T23:19:36.822Z,2.60
2019-05-14T23:22:07.470Z,2.40
2019-05-14T23:24:39.095Z,2.70
2019-05-14T23:27:10.598Z,2.83
2019-05-14T23:29:40.885Z,2.70
2019-05-14T23:32:12.194Z,2.37
2019-05-14T23:34:42.511Z,2.50
2019-05-14T23:37:13.151Z,2.40
2019-05-14T23:39:44.206Z,2.90
2019-05-14T23:42:14.654Z,2.40
2019-05-14T23:44:45.079Z,2.37
2019-05-14T23:47:15.373Z,2.90
2019-05-14T23:49:45.724Z,2.77
2019-05-14T23:52:16.032Z,2.77
2019-05-14T23:54:48.062Z,2.47
2019-05-14T23:57:18.859Z,2.80
2019-05-14T23:59:49.505Z,2.60
